sensor_id;sensor_type;location;lat;lon;timestamp;P1;durP1;ratioP1;P2;durP2;ratioP2
22131;SDS011;11232;51.748;19.390;2024-02-26T00:01:40;24.77;;;13.03;;
22131;SDS011;11232;51.748;19.390;2024-02-26T00:04:08;31.63;;;14.80;;
22131;SDS011;11232;51.748;19.390;2024-02-26T00:06:34;29.13;;;13.93;;
22131;SDS011;11232;51.748;19.390;2024-02-26T00:09:00;31.10;;;14.67;;
22131;SDS011;11232;51.748;19.390;2024-02-26T00:11:27;30.27;;;13.97;;
22131;SDS011;11232;51.748;19.390;2024-02-26T00:13:54;37.17;;;14.97;;
22131;SDS011;11232;51.748;19.390;2024-02-26T00:16:20;31.03;;;13.87;;
22131;SDS011;11232;51.748;19.390;2024-02-26T00:18:45;30.83;;;14.20;;
22131;SDS011;11232;51.748;19.390;2024-02-26T00:21:11;29.00;;;13.63;;
22131;SDS011;11232;51.748;19.390;2024-02-26T00:23:38;29.33;;;13.80;;
22131;SDS011;11232;51.748;19.390;2024-02-26T00:26:04;31.80;;;14.10;;
22131;SDS011;11232;51.748;19.390;2024-02-26T00:28:30;31.60;;;14.07;;
22131;SDS011;11232;51.748;19.390;2024-02-26T00:30:56;28.10;;;13.30;;
22131;SDS011;11232;51.748;19.390;2024-02-26T00:33:22;28.13;;;13.50;;
22131;SDS011;11232;51.748;19.390;2024-02-26T00:35:49;23.93;;;12.13;;
22131;SDS011;11232;51.748;19.390;2024-02-26T00:38:15;29.97;;;12.97;;
22131;SDS011;11232;51.748;19.390;2024-02-26T00:40:41;30.13;;;13.43;;
22131;SDS011;11232;51.748;19.390;2024-02-26T00:43:07;32.53;;;13.20;;
22131;SDS011;11232;51.748;19.390;2024-02-26T00:45:33;27.50;;;12.83;;
22131;SDS011;11232;51.748;19.390;2024-02-26T00:47:59;26.30;;;13.53;;
22131;SDS011;11232;51.748;19.390;2024-02-26T00:50:36;30.03;;;13.47;;
22131;SDS011;11232;51.748;19.390;2024-02-26T00:53:02;30.87;;;13.73;;
22131;SDS011;11232;51.748;19.390;2024-02-26T00:55:28;29.33;;;14.37;;
22131;SDS011;11232;51.748;19.390;2024-02-26T00:57:54;32.13;;;14.37;;
22131;SDS011;11232;51.748;19.390;2024-02-26T01:00:20;37.40;;;15.23;;
22131;SDS011;11232;51.748;19.390;2024-02-26T01:02:46;31.23;;;14.17;;
22131;SDS011;11232;51.748;19.390;2024-02-26T01:05:13;31.50;;;13.90;;
22131;SDS011;11232;51.748;19.390;2024-02-26T01:07:39;33.67;;;14.50;;
22131;SDS011;11232;51.748;19.390;2024-02-26T01:10:05;33.43;;;15.67;;
22131;SDS011;11232;51.748;19.390;2024-02-26T01:12:32;35.17;;;15.20;;
22131;SDS011;11232;51.748;19.390;2024-02-26T01:14:58;30.23;;;14.93;;
22131;SDS011;11232;51.748;19.390;2024-02-26T01:17:24;30.17;;;13.53;;
22131;SDS011;11232;51.748;19.390;2024-02-26T01:19:50;34.13;;;14.47;;
22131;SDS011;11232;51.748;19.390;2024-02-26T01:22:16;30.50;;;14.43;;
22131;SDS011;11232;51.748;19.390;2024-02-26T01:24:42;33.00;;;15.63;;
22131;SDS011;11232;51.748;19.390;2024-02-26T01:27:08;35.90;;;16.17;;
22131;SDS011;11232;51.748;19.390;2024-02-26T01:29:34;35.10;;;17.00;;
22131;SDS011;11232;51.748;19.390;2024-02-26T01:32:00;32.87;;;17.17;;
22131;SDS011;11232;51.748;19.390;2024-02-26T01:34:26;37.33;;;17.40;;
22131;SDS011;11232;51.748;19.390;2024-02-26T01:36:52;37.30;;;16.83;;
22131;SDS011;11232;51.748;19.390;2024-02-26T01:39:18;38.87;;;16.70;;
22131;SDS011;11232;51.748;19.390;2024-02-26T01:41:44;37.97;;;17.33;;
22131;SDS011;11232;51.748;19.390;2024-02-26T01:44:14;39.00;;;16.80;;
22131;SDS011;11232;51.748;19.390;2024-02-26T01:46:40;30.40;;;15.57;;
22131;SDS011;11232;51.748;19.390;2024-02-26T01:49:06;35.77;;;16.37;;
22131;SDS011;11232;51.748;19.390;2024-02-26T01:51:32;37.37;;;16.67;;
22131;SDS011;11232;51.748;19.390;2024-02-26T01:53:59;37.70;;;16.83;;
22131;SDS011;11232;51.748;19.390;2024-02-26T01:56:26;35.23;;;15.87;;
22131;SDS011;11232;51.748;19.390;2024-02-26T01:58:55;37.07;;;16.83;;
22131;SDS011;11232;51.748;19.390;2024-02-26T02:01:22;34.87;;;17.20;;
22131;SDS011;11232;51.748;19.390;2024-02-26T02:03:48;44.70;;;17.37;;
22131;SDS011;11232;51.748;19.390;2024-02-26T02:06:14;41.80;;;18.10;;
22131;SDS011;11232;51.748;19.390;2024-02-26T02:08:40;40.70;;;17.83;;
22131;SDS011;11232;51.748;19.390;2024-02-26T02:11:06;37.80;;;16.10;;
22131;SDS011;11232;51.748;19.390;2024-02-26T02:13:32;34.20;;;15.73;;
22131;SDS011;11232;51.748;19.390;2024-02-26T02:15:58;35.63;;;15.70;;
22131;SDS011;11232;51.748;19.390;2024-02-26T02:18:24;42.00;;;18.70;;
22131;SDS011;11232;51.748;19.390;2024-02-26T02:20:50;43.63;;;20.73;;
22131;SDS011;11232;51.748;19.390;2024-02-26T02:23:16;40.47;;;19.37;;
22131;SDS011;11232;51.748;19.390;2024-02-26T02:25:43;43.27;;;19.63;;
22131;SDS011;11232;51.748;19.390;2024-02-26T02:28:09;43.63;;;20.27;;
22131;SDS011;11232;51.748;19.390;2024-02-26T02:30:35;43.07;;;19.90;;
22131;SDS011;11232;51.748;19.390;2024-02-26T02:33:01;37.27;;;18.63;;
22131;SDS011;11232;51.748;19.390;2024-02-26T02:35:27;43.57;;;19.63;;
22131;SDS011;11232;51.748;19.390;2024-02-26T02:37:54;42.90;;;19.77;;
22131;SDS011;11232;51.748;19.390;2024-02-26T02:40:20;37.87;;;19.10;;
22131;SDS011;11232;51.748;19.390;2024-02-26T02:42:46;46.33;;;19.80;;
22131;SDS011;11232;51.748;19.390;2024-02-26T02:45:12;42.83;;;18.67;;
22131;SDS011;11232;51.748;19.390;2024-02-26T02:47:38;40.17;;;18.03;;
22131;SDS011;11232;51.748;19.390;2024-02-26T02:50:04;42.07;;;19.13;;
22131;SDS011;11232;51.748;19.390;2024-02-26T02:52:30;43.07;;;20.07;;
22131;SDS011;11232;51.748;19.390;2024-02-26T02:54:56;43.60;;;19.90;;
22131;SDS011;11232;51.748;19.390;2024-02-26T02:57:22;42.30;;;18.70;;
22131;SDS011;11232;51.748;19.390;2024-02-26T02:59:48;42.60;;;18.83;;
22131;SDS011;11232;51.748;19.390;2024-02-26T03:02:14;40.67;;;19.53;;
22131;SDS011;11232;51.748;19.390;2024-02-26T03:04:40;40.17;;;18.70;;
22131;SDS011;11232;51.748;19.390;2024-02-26T03:07:06;36.87;;;18.23;;
22131;SDS011;11232;51.748;19.390;2024-02-26T03:09:32;40.50;;;19.00;;
22131;SDS011;11232;51.748;19.390;2024-02-26T03:11:58;39.53;;;19.60;;
22131;SDS011;11232;51.748;19.390;2024-02-26T03:14:24;47.20;;;18.20;;
22131;SDS011;11232;51.748;19.390;2024-02-26T03:16:53;36.43;;;17.73;;
22131;SDS011;11232;51.748;19.390;2024-02-26T03:19:19;38.97;;;18.73;;
22131;SDS011;11232;51.748;19.390;2024-02-26T03:21:45;39.93;;;18.33;;
22131;SDS011;11232;51.748;19.390;2024-02-26T03:24:11;46.60;;;18.37;;
22131;SDS011;11232;51.748;19.390;2024-02-26T03:26:38;40.50;;;18.23;;
22131;SDS011;11232;51.748;19.390;2024-02-26T03:29:04;38.87;;;17.40;;
22131;SDS011;11232;51.748;19.390;2024-02-26T03:31:30;34.97;;;17.73;;
22131;SDS011;11232;51.748;19.390;2024-02-26T03:33:57;40.03;;;17.23;;
22131;SDS011;11232;51.748;19.390;2024-02-26T03:36:23;35.30;;;17.60;;
22131;SDS011;11232;51.748;19.390;2024-02-26T03:38:49;40.83;;;17.30;;
22131;SDS011;11232;51.748;19.390;2024-02-26T03:41:15;39.83;;;17.33;;
22131;SDS011;11232;51.748;19.390;2024-02-26T03:43:41;37.53;;;17.10;;
22131;SDS011;11232;51.748;19.390;2024-02-26T03:46:07;35.40;;;16.37;;
22131;SDS011;11232;51.748;19.390;2024-02-26T03:48:34;39.07;;;17.13;;
22131;SDS011;11232;51.748;19.390;2024-02-26T03:51:00;34.93;;;16.13;;
22131;SDS011;11232;51.748;19.390;2024-02-26T03:53:26;33.27;;;15.80;;
22131;SDS011;11232;51.748;19.390;2024-02-26T03:55:53;32.93;;;14.97;;
22131;SDS011;11232;51.748;19.390;2024-02-26T03:58:20;34.53;;;14.30;;
22131;SDS011;11232;51.748;19.390;2024-02-26T04:00:46;28.43;;;14.67;;
22131;SDS011;11232;51.748;19.390;2024-02-26T04:03:15;33.87;;;15.40;;
22131;SDS011;11232;51.748;19.390;2024-02-26T04:05:41;34.23;;;14.47;;
22131;SDS011;11232;51.748;19.390;2024-02-26T04:08:07;30.70;;;14.10;;
22131;SDS011;11232;51.748;19.390;2024-02-26T04:10:33;36.07;;;14.87;;
22131;SDS011;11232;51.748;19.390;2024-02-26T04:13:07;31.50;;;14.00;;
22131;SDS011;11232;51.748;19.390;2024-02-26T04:15:33;31.70;;;14.03;;
22131;SDS011;11232;51.748;19.390;2024-02-26T04:17:59;29.57;;;13.77;;
22131;SDS011;11232;51.748;19.390;2024-02-26T04:20:25;29.70;;;14.70;;
22131;SDS011;11232;51.748;19.390;2024-02-26T04:22:51;28.37;;;14.30;;
22131;SDS011;11232;51.748;19.390;2024-02-26T04:25:18;36.63;;;14.60;;
22131;SDS011;11232;51.748;19.390;2024-02-26T04:27:44;35.93;;;16.43;;
22131;SDS011;11232;51.748;19.390;2024-02-26T04:30:10;31.63;;;14.47;;
22131;SDS011;11232;51.748;19.390;2024-02-26T04:32:36;36.30;;;15.00;;
22131;SDS011;11232;51.748;19.390;2024-02-26T04:35:02;33.43;;;14.43;;
22131;SDS011;11232;51.748;19.390;2024-02-26T04:37:28;31.87;;;13.87;;
22131;SDS011;11232;51.748;19.390;2024-02-26T04:39:59;29.90;;;14.47;;
22131;SDS011;11232;51.748;19.390;2024-02-26T04:42:25;34.23;;;14.27;;
22131;SDS011;11232;51.748;19.390;2024-02-26T04:44:51;28.70;;;13.93;;
22131;SDS011;11232;51.748;19.390;2024-02-26T04:47:17;29.93;;;13.87;;
22131;SDS011;11232;51.748;19.390;2024-02-26T04:49:43;34.63;;;14.37;;
22131;SDS011;11232;51.748;19.390;2024-02-26T04:52:09;35.60;;;14.70;;
22131;SDS011;11232;51.748;19.390;2024-02-26T04:54:35;33.67;;;15.70;;
22131;SDS011;11232;51.748;19.390;2024-02-26T04:57:01;28.37;;;13.40;;
22131;SDS011;11232;51.748;19.390;2024-02-26T04:59:27;35.63;;;14.47;;
22131;SDS011;11232;51.748;19.390;2024-02-26T05:01:53;28.80;;;14.40;;
22131;SDS011;11232;51.748;19.390;2024-02-26T05:04:19;29.60;;;13.30;;
22131;SDS011;11232;51.748;19.390;2024-02-26T05:06:46;31.07;;;14.00;;
22131;SDS011;11232;51.748;19.390;2024-02-26T05:09:12;36.13;;;14.87;;
22131;SDS011;11232;51.748;19.390;2024-02-26T05:11:38;26.00;;;13.53;;
22131;SDS011;11232;51.748;19.390;2024-02-26T05:14:04;30.23;;;13.50;;
22131;SDS011;11232;51.748;19.390;2024-02-26T05:16:30;30.57;;;14.70;;
22131;SDS011;11232;51.748;19.390;2024-02-26T05:18:56;34.03;;;15.00;;
22131;SDS011;11232;51.748;19.390;2024-02-26T05:21:22;31.87;;;14.07;;
22131;SDS011;11232;51.748;19.390;2024-02-26T05:23:48;44.60;;;16.43;;
22131;SDS011;11232;51.748;19.390;2024-02-26T05:26:21;31.77;;;14.80;;
22131;SDS011;11232;51.748;19.390;2024-02-26T05:28:47;36.10;;;15.43;;
22131;SDS011;11232;51.748;19.390;2024-02-26T05:31:14;39.10;;;13.63;;
22131;SDS011;11232;51.748;19.390;2024-02-26T05:33:40;44.70;;;19.87;;
22131;SDS011;11232;51.748;19.390;2024-02-26T05:36:06;32.93;;;15.60;;
22131;SDS011;11232;51.748;19.390;2024-02-26T05:38:32;35.53;;;15.07;;
22131;SDS011;11232;51.748;19.390;2024-02-26T05:41:01;31.13;;;14.30;;
22131;SDS011;11232;51.748;19.390;2024-02-26T05:43:29;32.73;;;14.63;;
22131;SDS011;11232;51.748;19.390;2024-02-26T05:45:55;33.97;;;15.87;;
22131;SDS011;11232;51.748;19.390;2024-02-26T05:48:21;30.47;;;14.70;;
22131;SDS011;11232;51.748;19.390;2024-02-26T05:50:47;32.60;;;15.47;;
22131;SDS011;11232;51.748;19.390;2024-02-26T05:53:14;30.47;;;14.63;;
22131;SDS011;11232;51.748;19.390;2024-02-26T05:55:40;42.77;;;16.70;;
22131;SDS011;11232;51.748;19.390;2024-02-26T05:58:06;38.40;;;17.27;;
22131;SDS011;11232;51.748;19.390;2024-02-26T06:00:32;41.40;;;16.50;;
22131;SDS011;11232;51.748;19.390;2024-02-26T06:02:58;35.67;;;15.13;;
22131;SDS011;11232;51.748;19.390;2024-02-26T06:05:24;34.00;;;14.93;;
22131;SDS011;11232;51.748;19.390;2024-02-26T06:07:51;31.80;;;14.53;;
22131;SDS011;11232;51.748;19.390;2024-02-26T06:10:17;34.93;;;15.80;;
22131;SDS011;11232;51.748;19.390;2024-02-26T06:12:46;35.33;;;16.63;;
22131;SDS011;11232;51.748;19.390;2024-02-26T06:15:12;29.10;;;15.07;;
22131;SDS011;11232;51.748;19.390;2024-02-26T06:17:38;38.83;;;17.03;;
22131;SDS011;11232;51.748;19.390;2024-02-26T06:20:04;31.10;;;15.73;;
22131;SDS011;11232;51.748;19.390;2024-02-26T06:22:31;30.87;;;14.50;;
22131;SDS011;11232;51.748;19.390;2024-02-26T06:24:57;38.07;;;16.00;;
22131;SDS011;11232;51.748;19.390;2024-02-26T06:27:23;30.07;;;15.30;;
22131;SDS011;11232;51.748;19.390;2024-02-26T06:29:49;33.97;;;15.13;;
22131;SDS011;11232;51.748;19.390;2024-02-26T06:32:15;38.47;;;17.17;;
22131;SDS011;11232;51.748;19.390;2024-02-26T06:34:41;31.00;;;15.17;;
22131;SDS011;11232;51.748;19.390;2024-02-26T06:37:08;33.63;;;15.17;;
22131;SDS011;11232;51.748;19.390;2024-02-26T06:39:34;37.57;;;15.00;;
22131;SDS011;11232;51.748;19.390;2024-02-26T06:42:00;29.33;;;14.70;;
22131;SDS011;11232;51.748;19.390;2024-02-26T06:44:27;31.67;;;15.10;;
22131;SDS011;11232;51.748;19.390;2024-02-26T06:46:57;35.50;;;16.87;;
22131;SDS011;11232;51.748;19.390;2024-02-26T06:49:24;31.17;;;15.20;;
22131;SDS011;11232;51.748;19.390;2024-02-26T06:51:50;33.57;;;15.60;;
22131;SDS011;11232;51.748;19.390;2024-02-26T06:54:16;33.43;;;14.87;;
22131;SDS011;11232;51.748;19.390;2024-02-26T06:56:42;23.37;;;12.97;;
22131;SDS011;11232;51.748;19.390;2024-02-26T06:59:08;31.93;;;14.20;;
22131;SDS011;11232;51.748;19.390;2024-02-26T07:01:34;29.37;;;14.90;;
22131;SDS011;11232;51.748;19.390;2024-02-26T07:04:00;29.73;;;14.57;;
22131;SDS011;11232;51.748;19.390;2024-02-26T07:06:29;29.83;;;14.63;;
22131;SDS011;11232;51.748;19.390;2024-02-26T07:08:55;26.07;;;13.87;;
22131;SDS011;11232;51.748;19.390;2024-02-26T07:11:21;27.13;;;14.07;;
22131;SDS011;11232;51.748;19.390;2024-02-26T07:13:47;27.27;;;13.63;;
22131;SDS011;11232;51.748;19.390;2024-02-26T07:16:14;30.83;;;15.77;;
22131;SDS011;11232;51.748;19.390;2024-02-26T07:18:40;28.60;;;14.73;;
22131;SDS011;11232;51.748;19.390;2024-02-26T07:21:08;27.13;;;14.37;;
22131;SDS011;11232;51.748;19.390;2024-02-26T07:23:34;30.13;;;15.37;;
22131;SDS011;11232;51.748;19.390;2024-02-26T07:26:00;28.63;;;14.67;;
22131;SDS011;11232;51.748;19.390;2024-02-26T07:28:26;29.33;;;14.87;;
22131;SDS011;11232;51.748;19.390;2024-02-26T07:30:52;26.02;;;13.43;;
22131;SDS011;11232;51.748;19.390;2024-02-26T07:33:18;31.40;;;15.30;;
22131;SDS011;11232;51.748;19.390;2024-02-26T07:35:44;25.33;;;14.43;;
22131;SDS011;11232;51.748;19.390;2024-02-26T07:38:10;24.80;;;13.60;;
22131;SDS011;11232;51.748;19.390;2024-02-26T07:40:38;25.10;;;14.05;;
22131;SDS011;11232;51.748;19.390;2024-02-26T07:43:04;28.95;;;15.43;;
22131;SDS011;11232;51.748;19.390;2024-02-26T07:45:30;26.25;;;14.38;;
22131;SDS011;11232;51.748;19.390;2024-02-26T07:47:56;26.38;;;14.90;;
22131;SDS011;11232;51.748;19.390;2024-02-26T07:50:21;29.08;;;15.48;;
22131;SDS011;11232;51.748;19.390;2024-02-26T07:52:47;27.20;;;14.60;;
22131;SDS011;11232;51.748;19.390;2024-02-26T07:55:16;22.45;;;13.57;;
22131;SDS011;11232;51.748;19.390;2024-02-26T07:57:42;26.23;;;14.82;;
22131;SDS011;11232;51.748;19.390;2024-02-26T08:00:09;24.92;;;15.32;;
22131;SDS011;11232;51.748;19.390;2024-02-26T08:02:38;25.13;;;14.30;;
22131;SDS011;11232;51.748;19.390;2024-02-26T08:05:04;24.08;;;15.15;;
22131;SDS011;11232;51.748;19.390;2024-02-26T08:07:30;29.08;;;14.82;;
22131;SDS011;11232;51.748;19.390;2024-02-26T08:09:56;23.90;;;13.48;;
22131;SDS011;11232;51.748;19.390;2024-02-26T08:12:22;29.17;;;16.30;;
22131;SDS011;11232;51.748;19.390;2024-02-26T08:14:48;21.65;;;13.93;;
22131;SDS011;11232;51.748;19.390;2024-02-26T08:17:15;20.48;;;13.25;;
22131;SDS011;11232;51.748;19.390;2024-02-26T08:19:41;20.05;;;12.82;;
22131;SDS011;11232;51.748;19.390;2024-02-26T08:22:07;19.75;;;13.05;;
22131;SDS011;11232;51.748;19.390;2024-02-26T08:24:34;18.30;;;12.70;;
22131;SDS011;11232;51.748;19.390;2024-02-26T08:27:00;18.00;;;12.40;;
22131;SDS011;11232;51.748;19.390;2024-02-26T08:29:27;17.65;;;11.88;;
22131;SDS011;11232;51.748;19.390;2024-02-26T08:31:53;15.43;;;10.75;;
22131;SDS011;11232;51.748;19.390;2024-02-26T08:34:19;17.63;;;12.50;;
22131;SDS011;11232;51.748;19.390;2024-02-26T08:36:45;14.85;;;11.63;;
22131;SDS011;11232;51.748;19.390;2024-02-26T08:39:11;18.33;;;11.45;;
22131;SDS011;11232;51.748;19.390;2024-02-26T08:41:38;14.35;;;10.90;;
22131;SDS011;11232;51.748;19.390;2024-02-26T08:44:04;15.15;;;11.25;;
22131;SDS011;11232;51.748;19.390;2024-02-26T08:46:30;15.50;;;10.95;;
22131;SDS011;11232;51.748;19.390;2024-02-26T08:48:56;14.30;;;10.43;;
22131;SDS011;11232;51.748;19.390;2024-02-26T08:51:22;18.20;;;11.60;;
22131;SDS011;11232;51.748;19.390;2024-02-26T08:53:48;16.40;;;11.48;;
22131;SDS011;11232;51.748;19.390;2024-02-26T08:56:16;15.57;;;10.60;;
22131;SDS011;11232;51.748;19.390;2024-02-26T08:58:45;12.45;;;10.10;;
22131;SDS011;11232;51.748;19.390;2024-02-26T09:01:13;14.63;;;10.13;;
22131;SDS011;11232;51.748;19.390;2024-02-26T09:03:39;16.13;;;11.00;;
22131;SDS011;11232;51.748;19.390;2024-02-26T09:06:05;16.80;;;10.52;;
22131;SDS011;11232;51.748;19.390;2024-02-26T09:08:34;15.98;;;11.18;;
22131;SDS011;11232;51.748;19.390;2024-02-26T09:11:01;22.65;;;14.95;;
22131;SDS011;11232;51.748;19.390;2024-02-26T09:13:28;21.13;;;11.73;;
22131;SDS011;11232;51.748;19.390;2024-02-26T09:15:54;14.38;;;10.77;;
22131;SDS011;11232;51.748;19.390;2024-02-26T09:18:20;15.48;;;10.50;;
22131;SDS011;11232;51.748;19.390;2024-02-26T09:20:46;17.00;;;11.77;;
22131;SDS011;11232;51.748;19.390;2024-02-26T09:23:12;16.88;;;11.65;;
22131;SDS011;11232;51.748;19.390;2024-02-26T09:25:38;18.02;;;11.48;;
22131;SDS011;11232;51.748;19.390;2024-02-26T09:28:04;15.57;;;11.65;;
22131;SDS011;11232;51.748;19.390;2024-02-26T09:30:30;14.52;;;11.13;;
22131;SDS011;11232;51.748;19.390;2024-02-26T09:32:56;13.82;;;11.23;;
22131;SDS011;11232;51.748;19.390;2024-02-26T09:35:22;15.38;;;11.23;;
22131;SDS011;11232;51.748;19.390;2024-02-26T09:37:48;13.52;;;10.55;;
22131;SDS011;11232;51.748;19.390;2024-02-26T09:40:15;13.52;;;10.60;;
22131;SDS011;11232;51.748;19.390;2024-02-26T09:42:43;16.52;;;11.00;;
22131;SDS011;11232;51.748;19.390;2024-02-26T09:45:10;13.98;;;10.52;;
22131;SDS011;11232;51.748;19.390;2024-02-26T09:47:37;15.95;;;10.25;;
22131;SDS011;11232;51.748;19.390;2024-02-26T09:50:05;16.15;;;9.95;;
22131;SDS011;11232;51.748;19.390;2024-02-26T09:52:34;14.25;;;10.02;;
22131;SDS011;11232;51.748;19.390;2024-02-26T09:55:00;14.50;;;9.90;;
22131;SDS011;11232;51.748;19.390;2024-02-26T09:57:28;14.45;;;8.93;;
22131;SDS011;11232;51.748;19.390;2024-02-26T09:59:54;11.80;;;8.95;;
22131;SDS011;11232;51.748;19.390;2024-02-26T10:02:30;11.15;;;8.18;;
22131;SDS011;11232;51.748;19.390;2024-02-26T10:04:56;12.02;;;8.55;;
22131;SDS011;11232;51.748;19.390;2024-02-26T10:07:22;13.30;;;9.07;;
22131;SDS011;11232;51.748;19.390;2024-02-26T10:09:48;14.57;;;9.23;;
22131;SDS011;11232;51.748;19.390;2024-02-26T10:12:15;10.63;;;8.20;;
22131;SDS011;11232;51.748;19.390;2024-02-26T10:14:42;16.90;;;13.52;;
22131;SDS011;11232;51.748;19.390;2024-02-26T10:17:08;9.35;;;7.32;;
22131;SDS011;11232;51.748;19.390;2024-02-26T10:19:34;7.38;;;5.63;;
22131;SDS011;11232;51.748;19.390;2024-02-26T10:22:01;9.15;;;6.95;;
22131;SDS011;11232;51.748;19.390;2024-02-26T10:24:29;10.73;;;7.45;;
22131;SDS011;11232;51.748;19.390;2024-02-26T10:26:55;8.35;;;6.47;;
22131;SDS011;11232;51.748;19.390;2024-02-26T10:29:23;8.70;;;6.18;;
22131;SDS011;11232;51.748;19.390;2024-02-26T10:31:52;10.82;;;6.82;;
22131;SDS011;11232;51.748;19.390;2024-02-26T10:34:19;11.05;;;7.68;;
22131;SDS011;11232;51.748;19.390;2024-02-26T10:36:45;9.15;;;6.75;;
22131;SDS011;11232;51.748;19.390;2024-02-26T10:39:14;11.15;;;6.63;;
22131;SDS011;11232;51.748;19.390;2024-02-26T10:41:43;10.98;;;7.57;;
22131;SDS011;11232;51.748;19.390;2024-02-26T10:44:13;12.02;;;7.32;;
22131;SDS011;11232;51.748;19.390;2024-02-26T10:46:42;9.90;;;7.28;;
22131;SDS011;11232;51.748;19.390;2024-02-26T10:49:14;10.60;;;7.10;;
22131;SDS011;11232;51.748;19.390;2024-02-26T10:51:45;9.50;;;7.00;;
22131;SDS011;11232;51.748;19.390;2024-02-26T10:54:12;11.82;;;7.22;;
22131;SDS011;11232;51.748;19.390;2024-02-26T10:56:41;8.73;;;6.00;;
22131;SDS011;11232;51.748;19.390;2024-02-26T10:59:09;11.35;;;7.35;;
22131;SDS011;11232;51.748;19.390;2024-02-26T11:01:35;8.98;;;6.60;;
22131;SDS011;11232;51.748;19.390;2024-02-26T11:04:06;8.95;;;6.68;;
22131;SDS011;11232;51.748;19.390;2024-02-26T11:06:32;11.38;;;6.55;;
22131;SDS011;11232;51.748;19.390;2024-02-26T11:08:59;10.35;;;7.10;;
22131;SDS011;11232;51.748;19.390;2024-02-26T11:11:27;8.77;;;5.80;;
22131;SDS011;11232;51.748;19.390;2024-02-26T11:13:53;10.23;;;6.80;;
22131;SDS011;11232;51.748;19.390;2024-02-26T11:16:22;10.18;;;7.07;;
22131;SDS011;11232;51.748;19.390;2024-02-26T11:18:50;7.72;;;6.50;;
22131;SDS011;11232;51.748;19.390;2024-02-26T11:21:19;10.10;;;6.07;;
22131;SDS011;11232;51.748;19.390;2024-02-26T11:23:52;9.82;;;6.43;;
22131;SDS011;11232;51.748;19.390;2024-02-26T11:26:18;10.75;;;7.60;;
22131;SDS011;11232;51.748;19.390;2024-02-26T11:28:45;11.55;;;7.38;;
22131;SDS011;11232;51.748;19.390;2024-02-26T11:31:12;10.20;;;7.53;;
22131;SDS011;11232;51.748;19.390;2024-02-26T11:33:38;13.73;;;7.82;;
22131;SDS011;11232;51.748;19.390;2024-02-26T11:36:08;11.48;;;7.85;;
22131;SDS011;11232;51.748;19.390;2024-02-26T11:38:35;14.63;;;8.30;;
22131;SDS011;11232;51.748;19.390;2024-02-26T11:41:01;10.65;;;8.38;;
22131;SDS011;11232;51.748;19.390;2024-02-26T11:46:28;12.95;;;9.20;;
22131;SDS011;11232;51.748;19.390;2024-02-26T11:49:02;11.90;;;9.10;;
22131;SDS011;11232;51.748;19.390;2024-02-26T11:51:32;13.73;;;7.97;;
22131;SDS011;11232;51.748;19.390;2024-02-26T11:53:58;12.27;;;7.90;;
22131;SDS011;11232;51.748;19.390;2024-02-26T11:56:24;12.25;;;8.27;;
22131;SDS011;11232;51.748;19.390;2024-02-26T11:59:01;13.57;;;7.78;;
22131;SDS011;11232;51.748;19.390;2024-02-26T12:01:46;12.70;;;8.27;;
22131;SDS011;11232;51.748;19.390;2024-02-26T12:04:26;12.40;;;7.50;;
22131;SDS011;11232;51.748;19.390;2024-02-26T12:06:57;13.07;;;8.07;;
22131;SDS011;11232;51.748;19.390;2024-02-26T12:09:39;13.80;;;9.27;;
22131;SDS011;11232;51.748;19.390;2024-02-26T12:12:09;14.75;;;8.98;;
22131;SDS011;11232;51.748;19.390;2024-02-26T12:14:39;17.13;;;9.27;;
22131;SDS011;11232;51.748;19.390;2024-02-26T12:17:06;9.95;;;6.47;;
22131;SDS011;11232;51.748;19.390;2024-02-26T12:19:35;12.40;;;8.18;;
22131;SDS011;11232;51.748;19.390;2024-02-26T12:22:02;16.00;;;8.02;;
22131;SDS011;11232;51.748;19.390;2024-02-26T12:24:28;11.15;;;7.63;;
22131;SDS011;11232;51.748;19.390;2024-02-26T12:26:54;9.65;;;6.65;;
22131;SDS011;11232;51.748;19.390;2024-02-26T12:29:20;10.82;;;7.05;;
22131;SDS011;11232;51.748;19.390;2024-02-26T12:31:47;11.65;;;6.88;;
22131;SDS011;11232;51.748;19.390;2024-02-26T12:34:13;12.32;;;7.57;;
22131;SDS011;11232;51.748;19.390;2024-02-26T12:36:40;7.35;;;5.40;;
22131;SDS011;11232;51.748;19.390;2024-02-26T12:39:07;7.45;;;4.38;;
22131;SDS011;11232;51.748;19.390;2024-02-26T12:41:34;6.70;;;4.55;;
22131;SDS011;11232;51.748;19.390;2024-02-26T12:44:00;9.85;;;4.43;;
22131;SDS011;11232;51.748;19.390;2024-02-26T12:46:26;5.47;;;3.78;;
22131;SDS011;11232;51.748;19.390;2024-02-26T12:48:54;5.07;;;3.83;;
22131;SDS011;11232;51.748;19.390;2024-02-26T12:51:22;5.40;;;3.97;;
22131;SDS011;11232;51.748;19.390;2024-02-26T12:54:03;4.82;;;4.00;;
22131;SDS011;11232;51.748;19.390;2024-02-26T12:56:30;6.00;;;4.10;;
22131;SDS011;11232;51.748;19.390;2024-02-26T12:58:56;5.53;;;3.70;;
22131;SDS011;11232;51.748;19.390;2024-02-26T13:01:23;7.95;;;3.92;;
22131;SDS011;11232;51.748;19.390;2024-02-26T13:03:50;7.13;;;4.30;;
22131;SDS011;11232;51.748;19.390;2024-02-26T13:06:17;7.28;;;4.25;;
22131;SDS011;11232;51.748;19.390;2024-02-26T13:08:44;6.45;;;3.90;;
22131;SDS011;11232;51.748;19.390;2024-02-26T13:11:10;5.35;;;3.40;;
22131;SDS011;11232;51.748;19.390;2024-02-26T13:13:36;6.05;;;4.22;;
22131;SDS011;11232;51.748;19.390;2024-02-26T13:16:03;6.22;;;4.07;;
22131;SDS011;11232;51.748;19.390;2024-02-26T13:18:29;6.35;;;4.50;;
22131;SDS011;11232;51.748;19.390;2024-02-26T13:21:06;8.82;;;5.13;;
22131;SDS011;11232;51.748;19.390;2024-02-26T13:23:33;7.05;;;4.82;;
22131;SDS011;11232;51.748;19.390;2024-02-26T13:25:59;7.20;;;4.78;;
22131;SDS011;11232;51.748;19.390;2024-02-26T13:28:25;5.30;;;3.83;;
22131;SDS011;11232;51.748;19.390;2024-02-26T13:30:56;6.68;;;4.03;;
22131;SDS011;11232;51.748;19.390;2024-02-26T13:33:23;4.95;;;3.58;;
22131;SDS011;11232;51.748;19.390;2024-02-26T13:35:49;6.35;;;4.55;;
22131;SDS011;11232;51.748;19.390;2024-02-26T13:38:15;4.47;;;3.63;;
22131;SDS011;11232;51.748;19.390;2024-02-26T13:40:42;8.40;;;3.83;;
22131;SDS011;11232;51.748;19.390;2024-02-26T13:43:08;7.40;;;3.92;;
22131;SDS011;11232;51.748;19.390;2024-02-26T13:45:34;6.72;;;4.15;;
22131;SDS011;11232;51.748;19.390;2024-02-26T13:48:04;7.20;;;4.65;;
22131;SDS011;11232;51.748;19.390;2024-02-26T13:50:30;8.18;;;4.57;;
22131;SDS011;11232;51.748;19.390;2024-02-26T13:52:56;8.23;;;5.32;;
22131;SDS011;11232;51.748;19.390;2024-02-26T13:55:26;8.70;;;5.70;;
22131;SDS011;11232;51.748;19.390;2024-02-26T13:57:54;9.27;;;5.90;;
22131;SDS011;11232;51.748;19.390;2024-02-26T14:00:20;10.50;;;5.95;;
22131;SDS011;11232;51.748;19.390;2024-02-26T14:02:46;11.70;;;7.10;;
22131;SDS011;11232;51.748;19.390;2024-02-26T14:05:12;10.10;;;7.22;;
22131;SDS011;11232;51.748;19.390;2024-02-26T14:07:38;13.07;;;7.57;;
22131;SDS011;11232;51.748;19.390;2024-02-26T14:10:05;12.93;;;7.00;;
22131;SDS011;11232;51.748;19.390;2024-02-26T14:12:31;13.10;;;7.72;;
22131;SDS011;11232;51.748;19.390;2024-02-26T14:14:57;15.82;;;7.32;;